Meloi — 3FOD — position and weather

sailwx.info

Track history (hours):
 
Tides and Currents Weather Stations Pressure Air Temp Water Temp Dewpoint Dewpoint Depression Visibility Wind Speed Wind Dir Waves Ship Positions

Meloi

Last reported at 2016-Apr-30 16:33 UTC. Time now 2016-May-05 12:24 UTC.
Position N 35°50' W 009°14'.

Length 180 m; draft 9.2 m.

Type: Cargo ship. MMSI: 351132000.

Date/timePositionNaut miles runAvg speedWind from/ knotsBaromVisibWave heightAir tempDewpointWater temp
2016-Apr-30 16:33N 35°50' W 009°14'1313.2
2016-Apr-30 15:33N 36°01' W 009°22'8812.5
2016-Apr-30 08:32N 37°25' W 009°54'1612.3
2016-Apr-30 07:13N 37°41' W 009°57'812.3
2016-Apr-30 06:33N 37°49' W 009°58'1312.6
2016-Apr-30 05:32N 38°02' W 010°00'1212.4
2016-Apr-30 04:33N 38°14' W 010°02'1312.5
2016-Apr-30 03:33N 38°27' W 010°04'1212.7
2016-Apr-30 02:33N 38°39' W 010°07'1312.8
2016-Apr-30 01:33N 38°52' W 010°07'1412.8
2016-Apr-30 00:30N 39°05' W 010°07'1512.8
2016-Apr-29 23:20N 39°20' W 010°07'  
2016-Apr-27 14:26N 49°40' W 003°49'1213.1
2016-Apr-27 13:33N 49°46' W 003°33'1212.5
2016-Apr-27 12:33N 49°52' W 003°17'1211.8
2016-Apr-27 11:33N 49°58' W 003°01'1110.9
2016-Apr-27 10:33N 50°02' W 002°45'6811.4
2016-Apr-27 04:33N 49°49' W 001°00'1514.5
2016-Apr-27 03:33N 49°41' W 000°41'1313.4
2016-Apr-27 02:34N 49°35' W 000°24'1212.1
2016-Apr-27 01:34N 49°30' W 000°07'1010.0
2016-Apr-27 00:33N 49°26' E 000°08'1110.6
2016-Apr-26 23:33N 49°27' E 000°24'6 6.0
2016-Apr-26 22:33N 49°27' E 000°33'10 5.0
2016-Apr-26 20:33N 49°28' E 000°49'5 3.1
2016-Apr-26 19:05N 49°28' E 000°56'  
2016-Apr-21 22:15N 49°25' E 000°52'5 7.8
2016-Apr-21 21:33N 49°29' E 000°47'8 8.2
2016-Apr-21 20:34N 49°26' E 000°35'10 9.5
2016-Apr-21 19:33N 49°26' E 000°20'1313.4
2016-Apr-21 18:33N 49°28' W 000°00'4 3.4
2016-Apr-21 17:31N 49°28' W 000°06'0 0.1
2016-Apr-21 16:31N 49°28' W 000°06'0 0.0
2016-Apr-21 15:31N 49°28' W 000°06'0 0.0
2016-Apr-21 14:31N 49°28' W 000°06'0 0.0
2016-Apr-21 13:31N 49°28' W 000°06'0 0.0
2016-Apr-21 12:31N 49°28' W 000°06'0 0.1
2016-Apr-21 11:31N 49°28' W 000°06'0 0.1
2016-Apr-21 10:31N 49°28' W 000°05'0 0.1
2016-Apr-21 09:31N 49°28' W 000°05'2 1.9
2016-Apr-21 08:34N 49°29' W 000°07'1211.6
2016-Apr-21 07:33N 49°34' W 000°24'1414.0
2016-Apr-21 06:33N 49°40' W 000°43'1413.5
2016-Apr-21 05:34N 49°47' W 001°02'1312.9
2016-Apr-21 04:34N 49°52' W 001°19'1110.6
2016-Apr-21 03:34N 49°57' W 001°35'9 8.1
2016-Apr-21 02:25N 49°59' W 001°48'7 7.6
2016-Apr-21 01:33N 49°57' W 001°58'28 8.4
2016-Apr-20 22:10N 49°50' W 002°41'710.6
2016-Apr-20 21:33N 49°48' W 002°51'1111.1
2016-Apr-20 20:33N 49°43' W 003°06'1110.9
2016-Apr-20 19:34N 49°37' W 003°20'1110.8
2016-Apr-20 18:33N 49°32' W 003°35'1110.5
2016-Apr-20 17:33N 49°26' W 003°49'  
Track history (hours):
 
Tides and Currents Weather Stations Pressure Air Temp Water Temp Dewpoint Dewpoint Depression Visibility Wind Speed Wind Dir Waves Ship Positions

Meloi

Last reported at 2016-Apr-30 16:33 UTC. Time now 2016-May-05 12:24 UTC.
Position N 35°50' W 009°14'.

Length 180 m; draft 9.2 m.

Type: Cargo ship. MMSI: 351132000.

Date/timePositionNaut miles runAvg speedWind from/ knotsBaromVisibWave heightAir tempDewpointWater temp
2016-Apr-30 16:33N 35°50' W 009°14'1313.2
2016-Apr-30 15:33N 36°01' W 009°22'8812.5
2016-Apr-30 08:32N 37°25' W 009°54'1612.3
2016-Apr-30 07:13N 37°41' W 009°57'812.3
2016-Apr-30 06:33N 37°49' W 009°58'1312.6
2016-Apr-30 05:32N 38°02' W 010°00'1212.4
2016-Apr-30 04:33N 38°14' W 010°02'1312.5
2016-Apr-30 03:33N 38°27' W 010°04'1212.7
2016-Apr-30 02:33N 38°39' W 010°07'1312.8
2016-Apr-30 01:33N 38°52' W 010°07'1412.8
2016-Apr-30 00:30N 39°05' W 010°07'1512.8
2016-Apr-29 23:20N 39°20' W 010°07'  
2016-Apr-27 14:26N 49°40' W 003°49'1213.1
2016-Apr-27 13:33N 49°46' W 003°33'1212.5
2016-Apr-27 12:33N 49°52' W 003°17'1211.8
2016-Apr-27 11:33N 49°58' W 003°01'1110.9
2016-Apr-27 10:33N 50°02' W 002°45'6811.4
2016-Apr-27 04:33N 49°49' W 001°00'1514.5
2016-Apr-27 03:33N 49°41' W 000°41'1313.4
2016-Apr-27 02:34N 49°35' W 000°24'1212.1
2016-Apr-27 01:34N 49°30' W 000°07'1010.0
2016-Apr-27 00:33N 49°26' E 000°08'1110.6
2016-Apr-26 23:33N 49°27' E 000°24'6 6.0
2016-Apr-26 22:33N 49°27' E 000°33'10 5.0
2016-Apr-26 20:33N 49°28' E 000°49'5 3.1
2016-Apr-26 19:05N 49°28' E 000°56'  
2016-Apr-21 22:15N 49°25' E 000°52'5 7.8
2016-Apr-21 21:33N 49°29' E 000°47'8 8.2
2016-Apr-21 20:34N 49°26' E 000°35'10 9.5
2016-Apr-21 19:33N 49°26' E 000°20'1313.4
2016-Apr-21 18:33N 49°28' W 000°00'4 3.4
2016-Apr-21 17:31N 49°28' W 000°06'0 0.1
2016-Apr-21 16:31N 49°28' W 000°06'0 0.0
2016-Apr-21 15:31N 49°28' W 000°06'0 0.0
2016-Apr-21 14:31N 49°28' W 000°06'0 0.0
2016-Apr-21 13:31N 49°28' W 000°06'0 0.0
2016-Apr-21 12:31N 49°28' W 000°06'0 0.1
2016-Apr-21 11:31N 49°28' W 000°06'0 0.1
2016-Apr-21 10:31N 49°28' W 000°05'0 0.1
2016-Apr-21 09:31N 49°28' W 000°05'2 1.9
2016-Apr-21 08:34N 49°29' W 000°07'1211.6
2016-Apr-21 07:33N 49°34' W 000°24'1414.0
2016-Apr-21 06:33N 49°40' W 000°43'1413.5
2016-Apr-21 05:34N 49°47' W 001°02'1312.9
2016-Apr-21 04:34N 49°52' W 001°19'1110.6
2016-Apr-21 03:34N 49°57' W 001°35'9 8.1
2016-Apr-21 02:25N 49°59' W 001°48'7 7.6
2016-Apr-21 01:33N 49°57' W 001°58'28 8.4
2016-Apr-20 22:10N 49°50' W 002°41'710.6
2016-Apr-20 21:33N 49°48' W 002°51'1111.1
2016-Apr-20 20:33N 49°43' W 003°06'1110.9
2016-Apr-20 19:34N 49°37' W 003°20'1110.8
2016-Apr-20 18:33N 49°32' W 003°35'1110.5
2016-Apr-20 17:33N 49°26' W 003°49'  

Dump ship's entire track history